createdAt,value
2018-12-10T00:01:11.406Z,52.86
2018-12-10T00:03:38.206Z,52.99
2018-12-10T00:06:04.957Z,52.69
2018-12-10T00:08:32.576Z,52.56
2018-12-10T00:10:59.420Z,52.62
2018-12-10T00:13:25.569Z,52.54
2018-12-10T00:15:52.595Z,52.38
2018-12-10T00:18:19.341Z,52.57
2018-12-10T00:20:45.278Z,52.56
2018-12-10T00:23:12.200Z,53.00
2018-12-10T00:25:38.181Z,52.96
2018-12-10T00:28:04.899Z,52.43
2018-12-10T00:30:32.723Z,52.30
2018-12-10T00:32:59.486Z,52.54
2018-12-10T00:35:26.259Z,53.16
2018-12-10T00:37:52.205Z,53.42
2018-12-10T00:40:18.140Z,52.92
2018-12-10T00:42:45.070Z,53.97
2018-12-10T00:45:12.015Z,54.39
2018-12-10T00:47:38.848Z,54.12
2018-12-10T00:50:05.646Z,54.12
2018-12-10T00:52:32.486Z,53.71
2018-12-10T00:54:59.360Z,53.68
2018-12-10T00:57:26.267Z,53.56
2018-12-10T00:59:52.315Z,53.56
2018-12-10T01:02:18.253Z,53.09
2018-12-10T01:04:44.191Z,53.08
2018-12-10T01:07:10.120Z,53.39
2018-12-10T01:09:37.026Z,52.95
2018-12-10T01:12:04.774Z,53.24
2018-12-10T01:14:30.717Z,53.00
2018-12-10T01:16:57.458Z,52.99
2018-12-10T01:19:24.280Z,52.81
2018-12-10T01:21:50.215Z,53.05
2018-12-10T01:24:16.159Z,52.74
2018-12-10T01:26:42.141Z,52.56
2018-12-10T01:29:08.071Z,52.97
2018-12-10T01:31:34.037Z,52.56
2018-12-10T01:33:59.970Z,52.97
2018-12-10T01:36:25.912Z,53.02
2018-12-10T01:38:51.854Z,52.71
2018-12-10T01:41:18.791Z,52.45
2018-12-10T01:43:44.876Z,52.28
2018-12-10T01:46:10.823Z,52.40
2018-12-10T01:48:36.740Z,52.51
2018-12-10T01:51:02.766Z,52.45
2018-12-10T01:53:28.671Z,52.36
2018-12-10T01:55:54.615Z,52.05
2018-12-10T01:58:21.511Z,52.49
2018-12-10T02:00:47.468Z,52.30
2018-12-10T02:03:14.375Z,52.33
2018-12-10T02:05:41.223Z,52.82
2018-12-10T02:08:07.160Z,52.73
2018-12-10T02:10:33.113Z,52.31
2018-12-10T02:12:59.040Z,52.67
2018-12-10T02:15:25.018Z,52.54
2018-12-10T02:17:51.874Z,52.88
2018-12-10T02:20:18.689Z,52.75
2018-12-10T02:22:45.619Z,52.80
2018-12-10T02:25:12.461Z,52.71
2018-12-10T02:27:39.404Z,52.88
2018-12-10T02:30:05.388Z,52.91
2018-12-10T02:32:32.343Z,52.94
2018-12-10T02:34:59.216Z,52.70
2018-12-10T02:37:26.076Z,52.54
2018-12-10T02:39:52.925Z,52.68
2018-12-10T02:42:19.654Z,52.84
2018-12-10T02:44:46.405Z,52.49
2018-12-10T02:47:12.357Z,52.35
2018-12-10T02:49:39.217Z,52.66
2018-12-10T02:52:06.012Z,52.61
2018-12-10T02:54:33.229Z,52.24
2018-12-10T02:57:00.057Z,52.49
2018-12-10T02:59:26.952Z,52.14
2018-12-10T03:01:53.816Z,52.75
2018-12-10T03:04:20.803Z,52.38
2018-12-10T03:06:46.780Z,52.90
2018-12-10T03:09:13.649Z,52.29
2018-12-10T03:11:40.659Z,52.17
2018-12-10T03:14:07.280Z,52.57
2018-12-10T03:16:34.177Z,52.17
2018-12-10T03:19:00.958Z,52.61
2018-12-10T03:21:27.881Z,52.21
2018-12-10T03:23:54.623Z,52.50
2018-12-10T03:26:21.435Z,52.15
2018-12-10T03:28:47.385Z,52.10
2018-12-10T03:31:14.164Z,52.02
2018-12-10T03:33:40.147Z,52.49
2018-12-10T03:36:07.026Z,53.14
2018-12-10T03:38:33.011Z,53.00
2018-12-10T03:40:58.951Z,52.95
2018-12-10T03:43:24.884Z,52.47
2018-12-10T03:45:51.657Z,52.61
2018-12-10T03:48:17.593Z,52.56
2018-12-10T03:50:44.489Z,52.63
2018-12-10T03:53:10.428Z,52.66
2018-12-10T03:55:37.263Z,52.56
2018-12-10T03:58:03.222Z,52.54
2018-12-10T04:00:29.154Z,52.32
2018-12-10T04:02:55.101Z,52.59
2018-12-10T04:05:21.087Z,52.33
2018-12-10T04:07:47.880Z,52.61
2018-12-10T04:10:13.885Z,52.48
2018-12-10T04:12:40.707Z,52.52
2018-12-10T04:15:07.525Z,51.96
2018-12-10T04:17:33.467Z,52.37
2018-12-10T04:20:00.512Z,52.34
2018-12-10T04:22:26.465Z,52.23
2018-12-10T04:24:53.335Z,52.60
2018-12-10T04:27:19.279Z,52.51
2018-12-10T04:29:46.242Z,52.07
2018-12-10T04:32:12.996Z,52.11
2018-12-10T04:34:39.833Z,51.79
2018-12-10T04:37:05.810Z,52.27
2018-12-10T04:39:32.581Z,51.93
2018-12-10T04:41:58.468Z,51.94
2018-12-10T04:44:24.421Z,51.82
2018-12-10T04:46:50.341Z,52.25
2018-12-10T04:49:17.195Z,52.28
2018-12-10T04:51:44.052Z,51.99
2018-12-10T04:54:09.994Z,52.07
2018-12-10T04:56:35.928Z,52.46
2018-12-10T04:59:02.836Z,52.05
2018-12-10T05:01:28.777Z,52.32
2018-12-10T05:03:54.716Z,52.38
2018-12-10T05:06:20.649Z,52.57
2018-12-10T05:08:46.572Z,52.19
2018-12-10T05:11:12.513Z,52.38
2018-12-10T05:13:38.471Z,52.36
2018-12-10T05:16:04.412Z,52.76
2018-12-10T05:18:30.482Z,52.66
2018-12-10T05:20:56.415Z,52.53
2018-12-10T05:23:23.245Z,52.49
2018-12-10T05:25:50.070Z,52.25
2018-12-10T05:28:16.825Z,52.11
2018-12-10T05:30:42.750Z,52.27
2018-12-10T05:33:08.675Z,52.11
2018-12-10T05:35:34.594Z,52.30
2018-12-10T05:38:00.522Z,51.82
2018-12-10T05:40:26.507Z,51.95
2018-12-10T05:42:53.383Z,52.02
2018-12-10T05:45:20.295Z,51.70
2018-12-10T05:47:54.101Z,51.69
2018-12-10T05:50:20.907Z,51.57
2018-12-10T05:52:47.691Z,51.75
2018-12-10T05:55:13.661Z,51.59
2018-12-10T05:57:39.602Z,51.51
2018-12-10T06:00:06.745Z,51.51
2018-12-10T06:02:32.746Z,52.05
2018-12-10T06:04:59.735Z,51.64
2018-12-10T06:07:26.618Z,52.90
2018-12-10T06:09:52.579Z,53.21
2018-12-10T06:12:18.557Z,53.00
2018-12-10T06:14:45.446Z,52.98
2018-12-10T06:17:11.686Z,52.68
2018-12-10T06:19:38.483Z,52.62
2018-12-10T06:22:04.462Z,52.58
2018-12-10T06:24:31.894Z,53.02
2018-12-10T06:26:58.759Z,52.53
2018-12-10T06:29:24.704Z,52.52
2018-12-10T06:31:50.642Z,53.04
2018-12-10T06:34:16.623Z,52.44
2018-12-10T06:36:42.580Z,52.67
2018-12-10T06:39:08.539Z,52.59
2018-12-10T06:41:34.488Z,52.57
2018-12-10T06:44:00.427Z,52.59
2018-12-10T06:46:26.359Z,52.40
2018-12-10T06:48:52.300Z,52.08
2018-12-10T06:51:18.486Z,52.23
2018-12-10T06:53:44.416Z,51.55
2018-12-10T06:56:10.365Z,51.18
2018-12-10T06:58:37.307Z,51.07
2018-12-10T07:01:03.240Z,51.57
2018-12-10T07:03:30.013Z,51.52
2018-12-10T07:05:56.799Z,51.43
2018-12-10T07:08:23.524Z,51.94
2018-12-10T07:10:50.324Z,51.14
2018-12-10T07:13:17.260Z,51.10
2018-12-10T07:15:43.234Z,51.74
2018-12-10T07:18:09.195Z,51.56
2018-12-10T07:20:35.136Z,51.51
2018-12-10T07:23:01.722Z,51.10
2018-12-10T07:25:27.664Z,51.21
2018-12-10T07:27:53.734Z,51.48
2018-12-10T07:30:19.716Z,50.76
2018-12-10T07:32:45.649Z,51.25
2018-12-10T07:35:11.589Z,50.43
2018-12-10T07:37:37.539Z,50.99
2018-12-10T07:40:04.334Z,51.17
2018-12-10T07:42:32.240Z,51.15
2018-12-10T07:44:58.177Z,51.48
2018-12-10T07:47:25.165Z,51.31
2018-12-10T07:49:52.065Z,51.23
2018-12-10T07:52:17.990Z,51.45
2018-12-10T07:54:43.930Z,51.23
2018-12-10T07:57:09.934Z,51.60
2018-12-10T07:59:35.874Z,51.61
2018-12-10T08:02:04.998Z,51.79
2018-12-10T08:04:32.993Z,51.67
2018-12-10T08:06:59.875Z,51.46
2018-12-10T08:09:25.829Z,51.85
2018-12-10T08:11:51.782Z,51.39
2018-12-10T08:14:17.795Z,51.48
2018-12-10T08:16:43.716Z,50.94
2018-12-10T08:19:09.749Z,50.84
2018-12-10T08:21:36.501Z,51.16
2018-12-10T08:24:03.269Z,51.14
2018-12-10T08:26:29.199Z,51.17
2018-12-10T08:29:00.038Z,51.80
2018-12-10T08:31:23.176Z,51.65
2018-12-10T08:33:49.104Z,51.71
2018-12-10T08:36:15.045Z,51.58
2018-12-10T08:38:40.971Z,50.79
2018-12-10T08:41:06.912Z,51.54
2018-12-10T08:43:33.731Z,51.24
2018-12-10T08:45:59.673Z,50.89
2018-12-10T08:48:25.613Z,51.32
2018-12-10T08:50:51.539Z,51.12
2018-12-10T08:53:17.492Z,50.75
2018-12-10T08:55:44.441Z,50.63
2018-12-10T08:58:11.219Z,50.39
2018-12-10T09:00:37.977Z,50.74
2018-12-10T09:03:03.980Z,50.09
2018-12-10T09:05:29.921Z,50.57
2018-12-10T09:07:56.765Z,50.13
2018-12-10T09:10:22.743Z,50.16
2018-12-10T09:12:48.680Z,49.30
2018-12-10T09:15:14.635Z,47.91
2018-12-10T09:17:41.411Z,48.63
2018-12-10T09:20:07.398Z,48.72
2018-12-10T09:22:34.455Z,47.87
2018-12-10T09:25:00.403Z,49.35
2018-12-10T09:27:26.366Z,48.62
2018-12-10T09:29:53.316Z,47.96
2018-12-10T09:32:19.287Z,48.04
2018-12-10T09:34:45.224Z,47.22
2018-12-10T09:37:11.183Z,46.71
2018-12-10T09:39:37.994Z,47.54
2018-12-10T09:42:04.747Z,46.96
2018-12-10T09:44:32.717Z,48.82
2018-12-10T09:46:59.567Z,47.00
2018-12-10T09:49:25.561Z,46.68
2018-12-10T09:51:51.505Z,48.53
2018-12-10T09:54:17.499Z,47.44
2018-12-10T09:56:43.452Z,48.20
2018-12-10T09:59:09.399Z,46.88
2018-12-10T10:01:36.188Z,48.11
2018-12-10T10:04:02.167Z,48.40
2018-12-10T10:06:28.969Z,48.71
2018-12-10T10:08:54.928Z,48.37
2018-12-10T10:11:20.954Z,48.37
2018-12-10T10:13:47.055Z,48.01
2018-12-10T10:16:13.097Z,48.71
2018-12-10T10:18:39.036Z,49.06
2018-12-10T10:21:04.968Z,49.30
2018-12-10T10:23:30.935Z,49.77
2018-12-10T10:25:57.841Z,49.11
2018-12-10T10:28:23.802Z,49.09
2018-12-10T10:30:49.723Z,49.52
2018-12-10T10:33:15.760Z,49.64
2018-12-10T10:35:41.663Z,49.75
2018-12-10T10:38:07.592Z,49.62
2018-12-10T10:40:33.538Z,49.49
2018-12-10T10:43:00.493Z,49.51
2018-12-10T10:45:34.453Z,49.95
2018-12-10T10:47:54.666Z,49.98
2018-12-10T10:50:20.600Z,49.89
2018-12-10T10:52:46.620Z,49.94
2018-12-10T10:55:12.552Z,49.98
2018-12-10T10:57:38.549Z,50.13
2018-12-10T11:00:09.407Z,50.39
2018-12-10T11:02:41.528Z,50.71
2018-12-10T11:05:07.627Z,50.47
2018-12-10T11:07:41.363Z,50.89
2018-12-10T11:10:08.101Z,51.09
2018-12-10T11:12:35.095Z,50.84
2018-12-10T11:15:02.215Z,50.56
2018-12-10T11:17:29.048Z,50.30
2018-12-10T11:19:54.949Z,50.58
2018-12-10T11:22:20.887Z,50.79
2018-12-10T11:24:47.720Z,51.00
2018-12-10T11:27:14.544Z,50.74
2018-12-10T11:29:41.422Z,50.68
2018-12-10T11:32:07.398Z,50.25
2018-12-10T11:34:34.101Z,50.74
2018-12-10T11:37:02.120Z,50.77
2018-12-10T11:39:28.040Z,50.49
2018-12-10T11:41:54.962Z,49.86
2018-12-10T11:44:21.827Z,50.63
2018-12-10T11:46:48.606Z,50.69
2018-12-10T11:49:15.506Z,50.93
2018-12-10T11:51:42.417Z,50.62
2018-12-10T11:54:08.397Z,50.51
2018-12-10T11:56:34.323Z,49.58
2018-12-10T11:59:01.985Z,49.68
2018-12-10T12:01:28.016Z,50.07
2018-12-10T12:03:54.917Z,50.38
2018-12-10T12:06:21.751Z,50.43
2018-12-10T12:08:48.497Z,50.40
2018-12-10T12:11:14.429Z,49.93
2018-12-10T12:13:41.314Z,49.92
2018-12-10T12:16:07.412Z,49.22
2018-12-10T12:18:33.352Z,49.85
2018-12-10T12:20:59.328Z,49.63
2018-12-10T12:23:25.256Z,50.08
2018-12-10T12:25:51.216Z,50.53
2018-12-10T12:28:17.151Z,49.96
2018-12-10T12:30:43.076Z,49.67
2018-12-10T12:33:09.051Z,49.87
2018-12-10T12:35:34.997Z,49.22
2018-12-10T12:38:00.931Z,49.52
2018-12-10T12:40:26.861Z,50.07
2018-12-10T12:42:52.749Z,50.15
2018-12-10T12:45:19.556Z,49.85
2018-12-10T12:47:45.540Z,49.91
2018-12-10T12:50:11.505Z,50.13
2018-12-10T12:52:37.483Z,49.75
2018-12-10T12:55:03.444Z,50.10
2018-12-10T12:57:29.379Z,50.33
2018-12-10T12:59:56.988Z,50.25
2018-12-10T13:02:22.994Z,49.78
2018-12-10T13:04:49.782Z,50.07
2018-12-10T13:07:15.721Z,50.68
2018-12-10T13:09:42.559Z,50.57
2018-12-10T13:12:09.398Z,50.29
2018-12-10T13:14:35.403Z,50.07
2018-12-10T13:17:02.255Z,49.86
2018-12-10T13:19:29.698Z,49.71
2018-12-10T13:21:56.131Z,50.16
2018-12-10T13:24:22.111Z,49.47
2018-12-10T13:26:48.986Z,49.37
2018-12-10T13:29:15.005Z,49.58
2018-12-10T13:31:41.925Z,49.96
2018-12-10T13:34:07.898Z,49.54
2018-12-10T13:36:35.106Z,49.10
2018-12-10T13:39:02.087Z,49.95
2018-12-10T13:41:29.012Z,49.80
2018-12-10T13:43:54.949Z,49.85
2018-12-10T13:46:20.919Z,49.77
2018-12-10T13:48:47.899Z,50.11
2018-12-10T13:51:14.187Z,49.86
2018-12-10T13:53:40.175Z,50.31
2018-12-10T13:56:06.220Z,49.98
2018-12-10T13:58:33.238Z,50.23
2018-12-10T14:00:59.213Z,49.97
2018-12-10T14:03:25.229Z,49.61
2018-12-10T14:05:51.147Z,49.19
2018-12-10T14:08:17.070Z,50.02
2018-12-10T14:10:43.110Z,49.71
2018-12-10T14:13:09.054Z,49.46
2018-12-10T14:15:35.823Z,50.07
2018-12-10T14:18:02.831Z,49.96
2018-12-10T14:20:28.772Z,49.43
2018-12-10T14:22:54.694Z,49.53
2018-12-10T14:25:23.070Z,49.51
2018-12-10T14:27:50.565Z,49.45
2018-12-10T14:30:17.592Z,49.33
2018-12-10T14:32:43.586Z,50.09
2018-12-10T14:35:09.525Z,49.66
2018-12-10T14:37:35.465Z,49.80
2018-12-10T14:40:02.525Z,49.54
2018-12-10T14:42:29.409Z,49.31
2018-12-10T14:44:56.301Z,49.17
2018-12-10T14:47:22.247Z,49.91
2018-12-10T14:49:48.992Z,49.43
2018-12-10T14:52:15.716Z,49.69
2018-12-10T14:54:41.696Z,50.35
2018-12-10T14:57:07.649Z,50.15
2018-12-10T14:59:33.627Z,49.82
2018-12-10T15:01:59.572Z,49.71
2018-12-10T15:04:25.509Z,50.07
2018-12-10T15:06:51.887Z,49.84
2018-12-10T15:09:17.860Z,50.38
2018-12-10T15:11:43.787Z,50.22
2018-12-10T15:14:09.724Z,50.19
2018-12-10T15:16:35.665Z,49.79
2018-12-10T15:19:02.563Z,49.42
2018-12-10T15:21:28.501Z,49.61
2018-12-10T15:23:54.495Z,49.10
2018-12-10T15:26:21.263Z,49.58
2018-12-10T15:28:47.189Z,49.63
2018-12-10T15:31:13.111Z,49.69
2018-12-10T15:33:39.865Z,49.33
2018-12-10T15:36:05.832Z,49.51
2018-12-10T15:38:32.516Z,49.04
2018-12-10T15:40:58.489Z,48.99
2018-12-10T15:43:25.270Z,49.20
2018-12-10T15:45:51.214Z,48.88
2018-12-10T15:48:17.157Z,49.58
2018-12-10T15:50:43.098Z,49.60
2018-12-10T15:53:09.042Z,49.14
2018-12-10T15:55:34.989Z,49.48
2018-12-10T15:58:00.869Z,49.14
2018-12-10T16:00:27.727Z,48.98
2018-12-10T16:02:53.676Z,49.14
2018-12-10T16:05:19.642Z,49.33
2018-12-10T16:07:45.563Z,49.44
2018-12-10T16:10:11.525Z,49.15
2018-12-10T16:12:37.459Z,48.95
2018-12-10T16:15:03.931Z,49.09
2018-12-10T16:17:29.885Z,49.69
2018-12-10T16:19:55.806Z,49.38
2018-12-10T16:22:21.781Z,49.70
2018-12-10T16:24:47.940Z,49.33
2018-12-10T16:27:15.096Z,48.49
2018-12-10T16:29:41.063Z,48.76
2018-12-10T16:32:07.831Z,48.45
2018-12-10T16:34:34.770Z,48.56
2018-12-10T16:37:00.708Z,48.71
2018-12-10T16:39:26.680Z,49.04
2018-12-10T16:41:52.619Z,48.87
2018-12-10T16:44:19.404Z,48.91
2018-12-10T16:46:46.385Z,48.43
2018-12-10T16:49:12.356Z,49.30
2018-12-10T16:51:39.193Z,49.27
2018-12-10T16:54:05.206Z,49.22
2018-12-10T16:56:33.121Z,49.12
2018-12-10T16:58:59.065Z,48.95
2018-12-10T17:01:25.032Z,49.08
2018-12-10T17:03:51.965Z,49.19
2018-12-10T17:06:17.908Z,48.82
2018-12-10T17:08:44.894Z,49.58
2018-12-10T17:11:11.635Z,48.76
2018-12-10T17:13:37.620Z,48.99
2018-12-10T17:16:03.685Z,48.77
2018-12-10T17:18:29.603Z,49.21
2018-12-10T17:20:56.525Z,49.48
2018-12-10T17:23:22.470Z,48.61
2018-12-10T17:25:48.412Z,49.34
2018-12-10T17:28:14.393Z,49.27
2018-12-10T17:30:41.123Z,49.88
2018-12-10T17:33:07.949Z,49.31
2018-12-10T17:35:33.942Z,49.12
2018-12-10T17:38:00.736Z,49.70
2018-12-10T17:40:27.614Z,49.01
2018-12-10T17:42:54.583Z,49.12
2018-12-10T17:45:20.520Z,49.66
2018-12-10T17:47:46.484Z,49.17
2018-12-10T17:50:12.456Z,48.95
2018-12-10T17:52:38.505Z,49.24
2018-12-10T17:55:05.285Z,49.30
2018-12-10T17:57:33.077Z,48.89
2018-12-10T18:02:36.464Z,48.97
2018-12-10T18:05:02.431Z,48.28
2018-12-10T18:07:29.343Z,48.96
2018-12-10T18:09:55.272Z,48.79
2018-12-10T18:12:21.275Z,49.50
2018-12-10T18:14:47.225Z,48.34
2018-12-10T18:19:39.017Z,48.99
2018-12-10T18:22:04.949Z,48.96
2018-12-10T18:24:30.902Z,48.81
2018-12-10T18:26:57.925Z,49.62
2018-12-10T18:29:23.865Z,48.87
2018-12-10T18:31:50.594Z,48.81
2018-12-10T18:34:16.536Z,49.25
2018-12-10T18:36:43.312Z,49.83
2018-12-10T18:39:09.346Z,49.36
2018-12-10T18:41:36.097Z,49.42
2018-12-10T18:44:02.053Z,49.67
2018-12-10T18:46:27.995Z,49.48
2018-12-10T18:48:53.929Z,49.35
2018-12-10T18:51:20.808Z,49.76
2018-12-10T18:53:46.733Z,49.60
2018-12-10T18:56:12.674Z,49.47
2018-12-10T18:58:38.612Z,49.59
2018-12-10T19:01:04.549Z,49.74
2018-12-10T19:03:30.482Z,49.38
2018-12-10T19:05:56.420Z,49.03
2018-12-10T19:08:22.354Z,49.34
2018-12-10T19:10:48.298Z,49.15
2018-12-10T19:13:15.126Z,49.47
2018-12-10T19:15:41.146Z,48.61
2018-12-10T19:18:07.166Z,48.99
2018-12-10T19:20:33.122Z,48.75
2018-12-10T19:23:00.737Z,48.76
2018-12-10T19:25:26.665Z,49.05
2018-12-10T19:27:52.682Z,48.50
2018-12-10T19:30:18.742Z,48.67
2018-12-10T19:32:44.685Z,48.99
2018-12-10T19:35:10.633Z,49.50
2018-12-10T19:37:36.589Z,48.42
2018-12-10T19:40:03.273Z,49.20
2018-12-10T19:42:29.272Z,48.96
2018-12-10T19:44:55.218Z,48.86
2018-12-10T19:47:21.183Z,49.61
2018-12-10T19:49:47.237Z,49.30
2018-12-10T19:52:13.245Z,48.97
2018-12-10T19:54:39.189Z,49.38
2018-12-10T19:57:05.266Z,48.92
2018-12-10T19:59:32.312Z,49.40
2018-12-10T20:01:58.263Z,49.57
2018-12-10T20:04:24.204Z,50.09
2018-12-10T20:06:56.473Z,49.25
2018-12-10T20:09:22.458Z,49.66
2018-12-10T20:11:48.451Z,48.70
2018-12-10T20:14:14.463Z,49.03
2018-12-10T20:16:40.383Z,49.69
2018-12-10T20:19:06.329Z,49.50
2018-12-10T20:21:32.269Z,49.66
2018-12-10T20:23:58.208Z,49.51
2018-12-10T20:26:24.470Z,49.43
2018-12-10T20:28:50.433Z,49.32
2018-12-10T20:31:16.506Z,49.55
2018-12-10T20:33:42.474Z,49.87
2018-12-10T20:36:08.415Z,50.04
2018-12-10T20:38:34.398Z,49.48
2018-12-10T20:41:00.458Z,49.69
2018-12-10T20:43:27.279Z,48.81
2018-12-10T20:45:53.255Z,48.94
2018-12-10T20:48:19.211Z,49.45
2018-12-10T20:50:45.201Z,49.73
2018-12-10T20:53:11.198Z,50.02
2018-12-10T20:55:37.370Z,49.84
2018-12-10T20:58:03.331Z,49.33
2018-12-10T21:00:29.713Z,49.35
2018-12-10T21:02:56.462Z,49.36
2018-12-10T21:05:24.539Z,49.84
2018-12-10T21:07:50.488Z,50.12
2018-12-10T21:10:16.455Z,50.40
2018-12-10T21:12:42.556Z,49.74
2018-12-10T21:15:08.742Z,49.49
2018-12-10T21:17:34.798Z,48.98
2018-12-10T21:20:01.684Z,49.36
2018-12-10T21:22:27.727Z,48.98
2018-12-10T21:24:53.679Z,49.48
2018-12-10T21:27:19.890Z,49.26
2018-12-10T21:29:45.814Z,49.15
2018-12-10T21:32:11.788Z,49.63
2018-12-10T21:34:37.761Z,49.43
2018-12-10T21:37:03.701Z,49.47
2018-12-10T21:39:30.265Z,49.93
2018-12-10T21:41:56.199Z,49.71
2018-12-10T21:44:22.192Z,49.88
2018-12-10T21:46:49.103Z,49.87
2018-12-10T21:49:15.098Z,49.91
2018-12-10T21:51:41.857Z,50.12
2018-12-10T21:54:07.794Z,49.40
2018-12-10T21:56:34.677Z,49.21
2018-12-10T21:59:00.694Z,49.80
2018-12-10T22:01:26.753Z,48.98
2018-12-10T22:03:52.828Z,49.50
2018-12-10T22:06:18.761Z,49.60
2018-12-10T22:08:45.512Z,49.76
2018-12-10T22:11:11.450Z,50.25
2018-12-10T22:13:38.403Z,49.47
2018-12-10T22:16:04.489Z,49.59
2018-12-10T22:18:31.816Z,49.46
2018-12-10T22:20:57.756Z,49.69
2018-12-10T22:23:24.634Z,49.22
2018-12-10T22:25:50.559Z,49.20
2018-12-10T22:28:16.496Z,49.35
2018-12-10T22:30:42.426Z,49.28
2018-12-10T22:33:08.387Z,48.82
2018-12-10T22:35:34.361Z,49.17
2018-12-10T22:38:07.283Z,49.18
2018-12-10T22:40:33.262Z,48.94
2018-12-10T22:42:59.999Z,49.66
2018-12-10T22:45:26.753Z,49.68
2018-12-10T22:47:52.702Z,49.40
2018-12-10T22:50:18.636Z,49.63
2018-12-10T22:52:44.572Z,49.75
2018-12-10T22:55:10.686Z,49.74
2018-12-10T22:57:37.520Z,49.84
2018-12-10T23:00:04.621Z,49.86
2018-12-10T23:02:30.557Z,49.84
2018-12-10T23:04:56.524Z,49.71
2018-12-10T23:07:22.439Z,49.99
2018-12-10T23:09:48.377Z,49.54
2018-12-10T23:12:14.305Z,49.27
2018-12-10T23:14:40.235Z,49.58
2018-12-10T23:17:06.157Z,49.64
2018-12-10T23:19:32.214Z,49.58
2018-12-10T23:21:58.148Z,50.17
2018-12-10T23:24:24.105Z,49.66
2018-12-10T23:26:50.030Z,49.56
2018-12-10T23:29:16.065Z,49.63
2018-12-10T23:31:42.022Z,49.90
2018-12-10T23:34:08.025Z,49.45
2018-12-10T23:36:33.971Z,49.93
2018-12-10T23:38:59.895Z,49.31
2018-12-10T23:41:25.823Z,49.63
2018-12-10T23:43:52.722Z,49.15
2018-12-10T23:46:19.470Z,49.04
2018-12-10T23:48:46.283Z,49.56
2018-12-10T23:51:13.136Z,49.68
2018-12-10T23:53:39.123Z,49.53
2018-12-10T23:56:05.077Z,49.33
2018-12-10T23:58:31.695Z,49.84
